createdAt,value
2018-06-24T00:00:07.132Z,8.47
2018-06-24T00:02:36.091Z,7.97
2018-06-24T00:05:09.456Z,8.37
2018-06-24T00:07:38.803Z,8.53
2018-06-24T00:10:07.847Z,6.60
2018-06-24T00:12:37.563Z,11.23
2018-06-24T00:15:10.324Z,8.20
2018-06-24T00:17:39.563Z,9.33
2018-06-24T00:20:09.259Z,9.87
2018-06-24T00:22:38.364Z,10.33
2018-06-24T00:25:09.521Z,9.63
2018-06-24T00:27:38.863Z,8.80
2018-06-24T00:30:07.852Z,7.07
2018-06-24T00:32:36.998Z,7.97
2018-06-24T00:35:07.915Z,8.00
2018-06-24T00:37:37.779Z,9.03
2018-06-24T00:40:06.739Z,12.07
2018-06-24T00:42:35.683Z,7.53
2018-06-24T00:45:08.251Z,14.23
2018-06-24T00:47:37.354Z,9.33
2018-06-24T00:50:06.909Z,9.13
2018-06-24T00:52:37.313Z,10.30
2018-06-24T00:55:09.810Z,10.80
2018-06-24T00:57:39.449Z,10.20
2018-06-24T01:00:12.819Z,8.63
2018-06-24T01:02:42.314Z,10.23
2018-06-24T01:05:13.054Z,9.13
2018-06-24T01:07:43.802Z,7.90
2018-06-24T01:10:13.108Z,9.00
2018-06-24T01:12:42.612Z,9.43
2018-06-24T01:15:12.107Z,8.17
2018-06-24T01:17:42.024Z,8.03
2018-06-24T01:20:10.998Z,7.20
2018-06-24T01:22:40.158Z,8.07
2018-06-24T01:25:12.686Z,8.50
2018-06-24T01:27:42.405Z,8.17
2018-06-24T01:30:11.460Z,6.97
2018-06-24T01:32:40.534Z,10.17
2018-06-24T01:35:11.494Z,9.63
2018-06-24T01:37:40.444Z,9.57
2018-06-24T01:40:09.481Z,9.03
2018-06-24T01:42:38.594Z,9.13
2018-06-24T01:45:12.080Z,8.27
2018-06-24T01:47:41.004Z,10.17
2018-06-24T01:50:10.267Z,8.67
2018-06-24T01:52:40.396Z,8.27
2018-06-24T01:55:15.775Z,9.67
2018-06-24T01:57:45.004Z,10.63
2018-06-24T02:00:14.342Z,8.63
2018-06-24T02:02:43.429Z,8.60
2018-06-24T02:05:12.508Z,9.27
2018-06-24T02:07:41.942Z,10.33
2018-06-24T02:10:11.478Z,9.27
2018-06-24T02:12:43.829Z,8.40
2018-06-24T02:15:15.028Z,8.03
2018-06-24T02:17:44.225Z,9.93
2018-06-24T02:20:13.233Z,9.23
2018-06-24T02:22:42.431Z,8.07
2018-06-24T02:25:14.276Z,8.10
2018-06-24T02:27:43.394Z,9.90
2018-06-24T02:30:12.690Z,8.03
2018-06-24T02:32:41.758Z,8.13
2018-06-24T02:35:13.657Z,8.63
2018-06-24T02:37:43.892Z,8.60
2018-06-24T02:40:13.063Z,8.47
2018-06-24T02:42:42.142Z,10.93
2018-06-24T02:45:12.836Z,11.53
2018-06-24T02:47:41.791Z,9.43
2018-06-24T02:50:10.982Z,12.67
2018-06-24T02:52:40.046Z,9.20
2018-06-24T02:55:13.987Z,10.37
2018-06-24T02:57:43.208Z,7.80
2018-06-24T03:00:12.303Z,8.20
2018-06-24T03:02:41.596Z,8.57
2018-06-24T03:05:14.220Z,9.23
2018-06-24T03:07:43.586Z,10.83
2018-06-24T03:10:12.853Z,10.07
2018-06-24T03:12:42.382Z,8.63
2018-06-24T03:15:13.563Z,9.13
2018-06-24T03:17:43.150Z,9.47
2018-06-24T03:20:12.847Z,9.73
2018-06-24T03:22:41.905Z,8.47
2018-06-24T03:25:14.575Z,8.90
2018-06-24T03:27:44.249Z,9.03
2018-06-24T03:30:13.472Z,8.93
2018-06-24T03:32:42.426Z,9.27
2018-06-24T03:35:13.927Z,10.53
2018-06-24T03:37:43.865Z,8.80
2018-06-24T03:40:13.339Z,9.97
2018-06-24T03:42:42.444Z,8.93
2018-06-24T03:45:13.848Z,10.30
2018-06-24T03:47:42.918Z,9.67
2018-06-24T03:50:11.966Z,10.53
2018-06-24T03:52:41.088Z,11.80
2018-06-24T03:55:13.123Z,11.00
2018-06-24T03:57:42.247Z,11.10
2018-06-24T04:00:11.389Z,9.57
2018-06-24T04:02:40.846Z,10.43
2018-06-24T04:05:14.178Z,9.87
2018-06-24T04:07:43.701Z,13.87
2018-06-24T04:10:13.149Z,11.63
2018-06-24T04:12:42.685Z,10.33
2018-06-24T04:15:14.441Z,10.70
2018-06-24T04:17:43.638Z,10.37
2018-06-24T04:20:12.610Z,10.63
2018-06-24T04:22:41.687Z,11.90
2018-06-24T04:25:14.386Z,12.40
2018-06-24T04:27:43.334Z,12.70
2018-06-24T04:30:12.577Z,14.47
2018-06-24T04:32:41.689Z,13.30
2018-06-24T04:35:12.019Z,13.67
2018-06-24T04:37:41.070Z,13.27
2018-06-24T04:40:10.165Z,12.40
2018-06-24T04:42:39.261Z,15.87
2018-06-24T04:45:12.629Z,13.03
2018-06-24T04:47:42.384Z,12.37
2018-06-24T04:50:11.461Z,12.97
2018-06-24T04:52:40.410Z,14.47
2018-06-24T04:55:14.254Z,13.47
2018-06-24T04:57:43.672Z,14.77
2018-06-24T05:00:12.766Z,16.80
2018-06-24T05:02:41.857Z,11.37
2018-06-24T05:05:16.704Z,12.40
2018-06-24T05:07:45.895Z,12.80
2018-06-24T05:10:14.964Z,14.13
2018-06-24T05:12:44.076Z,12.83
2018-06-24T05:15:13.389Z,13.20
2018-06-24T05:17:42.484Z,13.13
2018-06-24T05:20:11.835Z,14.20
2018-06-24T05:22:40.866Z,18.60
2018-06-24T05:25:12.663Z,12.47
2018-06-24T05:27:42.263Z,15.70
2018-06-24T05:30:12.778Z,13.60
2018-06-24T05:32:42.478Z,13.27
2018-06-24T05:35:11.745Z,15.93
2018-06-24T05:37:40.899Z,14.53
2018-06-24T05:40:09.935Z,16.97
2018-06-24T05:42:38.898Z,16.60
2018-06-24T05:45:08.044Z,20.33
2018-06-24T05:47:37.354Z,16.33
2018-06-24T05:50:06.657Z,16.23
2018-06-24T05:52:35.761Z,17.87
2018-06-24T05:55:08.545Z,19.07
2018-06-24T05:57:37.870Z,17.13
2018-06-24T06:00:08.864Z,17.50
2018-06-24T06:02:38.705Z,22.57
2018-06-24T06:05:08.902Z,18.67
2018-06-24T06:07:38.324Z,23.17
2018-06-24T06:10:07.668Z,24.90
2018-06-24T06:12:36.923Z,19.40
2018-06-24T06:15:07.576Z,22.67
2018-06-24T06:17:36.563Z,19.73
2018-06-24T06:20:07.269Z,20.83
2018-06-24T06:22:36.591Z,20.93
2018-06-24T06:25:09.615Z,22.63
2018-06-24T06:27:39.272Z,21.67
2018-06-24T06:30:08.961Z,21.37
2018-06-24T06:32:38.590Z,19.77
2018-06-24T06:35:08.099Z,22.50
2018-06-24T06:37:37.383Z,22.77
2018-06-24T06:40:07.112Z,20.33
2018-06-24T06:42:36.094Z,24.50
2018-06-24T06:45:09.281Z,20.03
2018-06-24T06:47:38.354Z,21.83
2018-06-24T06:50:08.031Z,24.17
2018-06-24T06:52:37.903Z,24.30
2018-06-24T06:55:07.459Z,23.47
2018-06-24T06:57:36.689Z,22.20
2018-06-24T07:00:06.262Z,22.07
2018-06-24T07:02:35.221Z,22.17
2018-06-24T07:05:05.387Z,20.00
2018-06-24T07:07:41.025Z,20.67
2018-06-24T07:10:10.555Z,23.47
2018-06-24T07:12:39.650Z,22.07
2018-06-24T07:15:09.811Z,21.03
2018-06-24T07:17:38.790Z,23.13
2018-06-24T07:20:08.338Z,22.33
2018-06-24T07:22:37.335Z,21.50
2018-06-24T07:25:08.787Z,20.20
2018-06-24T07:27:40.715Z,24.07
2018-06-24T07:30:09.768Z,20.30
2018-06-24T07:32:39.063Z,21.83
2018-06-24T07:35:12.614Z,19.93
2018-06-24T07:37:41.978Z,19.63
2018-06-24T07:40:11.059Z,22.33
2018-06-24T07:42:40.955Z,18.03
2018-06-24T07:45:13.007Z,21.63
2018-06-24T07:47:42.305Z,22.10
2018-06-24T07:50:11.594Z,22.70
2018-06-24T07:52:41.670Z,16.07
2018-06-24T07:55:14.250Z,16.00
2018-06-24T07:57:43.448Z,15.97
2018-06-24T08:00:12.628Z,17.77
2018-06-24T08:02:42.471Z,17.00
2018-06-24T08:05:11.607Z,15.93
2018-06-24T08:07:40.743Z,21.17
2018-06-24T08:10:10.167Z,15.67
2018-06-24T08:12:39.134Z,15.07
2018-06-24T08:15:08.447Z,15.27
2018-06-24T08:17:37.676Z,12.90
2018-06-24T08:20:08.513Z,13.30
2018-06-24T08:22:37.647Z,15.57
2018-06-24T08:25:07.730Z,12.90
2018-06-24T08:27:37.528Z,13.13
2018-06-24T08:30:08.904Z,13.90
2018-06-24T08:32:37.841Z,13.07
2018-06-24T08:35:07.911Z,12.67
2018-06-24T08:37:37.036Z,13.60
2018-06-24T08:40:09.888Z,15.00
2018-06-24T08:42:40.115Z,15.87
2018-06-24T08:45:10.291Z,12.60
2018-06-24T08:47:39.547Z,14.53
2018-06-24T08:50:08.759Z,13.87
2018-06-24T08:52:38.012Z,15.33
2018-06-24T08:55:07.379Z,12.77
2018-06-24T08:57:36.613Z,16.57
2018-06-24T09:00:08.035Z,13.90
2018-06-24T09:02:37.056Z,15.67
2018-06-24T09:05:06.174Z,13.13
2018-06-24T09:07:35.102Z,13.17
2018-06-24T09:10:09.211Z,17.50
2018-06-24T09:12:38.593Z,13.83
2018-06-24T09:15:08.144Z,16.67
2018-06-24T09:17:37.278Z,13.07
2018-06-24T09:20:07.211Z,12.00
2018-06-24T09:22:36.480Z,13.20
2018-06-24T09:25:05.999Z,11.73
2018-06-24T09:27:35.313Z,11.73
2018-06-24T09:30:07.807Z,12.20
2018-06-24T09:32:37.248Z,11.87
2018-06-24T09:35:06.718Z,12.97
2018-06-24T09:37:35.669Z,14.10
2018-06-24T09:40:06.874Z,12.37
2018-06-24T09:42:36.108Z,14.90
2018-06-24T09:45:05.226Z,12.87
2018-06-24T09:47:34.513Z,13.73
2018-06-24T09:50:07.326Z,13.33
2018-06-24T09:52:37.178Z,12.90
2018-06-24T09:55:06.318Z,17.63
2018-06-24T09:57:35.373Z,14.10
2018-06-24T10:00:12.650Z,13.13
2018-06-24T10:02:41.876Z,13.17
2018-06-24T10:05:11.046Z,10.83
2018-06-24T10:07:40.298Z,12.77
2018-06-24T10:10:09.914Z,11.50
2018-06-24T10:12:39.436Z,12.70
2018-06-24T10:15:09.239Z,14.53
2018-06-24T10:17:38.825Z,13.33
2018-06-24T10:20:08.454Z,12.27
2018-06-24T10:22:37.704Z,13.03
2018-06-24T10:25:06.796Z,10.90
2018-06-24T10:27:35.951Z,11.83
2018-06-24T10:30:09.009Z,10.70
2018-06-24T10:32:38.133Z,13.07
2018-06-24T10:35:08.199Z,10.13
2018-06-24T10:37:37.716Z,10.37
2018-06-24T10:40:07.635Z,10.93
2018-06-24T10:42:36.601Z,12.77
2018-06-24T10:45:06.340Z,11.47
2018-06-24T10:47:35.542Z,8.77
2018-06-24T10:50:08.261Z,9.90
2018-06-24T10:52:37.484Z,9.27
2018-06-24T10:55:06.570Z,8.30
2018-06-24T10:57:35.723Z,7.80
2018-06-24T11:00:09.291Z,9.03
2018-06-24T11:02:38.450Z,21.20
2018-06-24T11:05:07.588Z,11.07
2018-06-24T11:07:37.018Z,9.43
2018-06-24T11:10:07.601Z,10.17
2018-06-24T11:12:36.714Z,9.47
2018-06-24T11:15:06.609Z,10.63
2018-06-24T11:17:36.376Z,8.13
2018-06-24T11:20:08.921Z,10.07
2018-06-24T11:22:38.812Z,7.07
2018-06-24T11:25:07.955Z,8.97
2018-06-24T11:27:37.167Z,7.83
2018-06-24T11:30:07.832Z,10.00
2018-06-24T11:32:37.095Z,8.70
2018-06-24T11:35:06.289Z,10.00
2018-06-24T11:37:35.813Z,9.10
2018-06-24T11:40:08.120Z,11.77
2018-06-24T11:42:37.678Z,9.63
2018-06-24T11:45:12.231Z,9.10
2018-06-24T11:47:41.567Z,8.20
2018-06-24T11:50:10.546Z,8.10
2018-06-24T11:52:39.767Z,7.90
2018-06-24T11:55:09.071Z,6.50
2018-06-24T11:57:45.116Z,7.17
2018-06-24T12:00:15.307Z,5.73
2018-06-24T12:02:44.350Z,7.80
2018-06-24T12:05:14.035Z,9.37
2018-06-24T12:07:43.238Z,9.17
2018-06-24T12:10:12.503Z,8.83
2018-06-24T12:12:41.643Z,6.67
2018-06-24T12:15:11.482Z,6.60
2018-06-24T12:17:40.644Z,5.80
2018-06-24T12:20:09.899Z,8.00
2018-06-24T12:22:39.064Z,10.00
2018-06-24T12:25:08.314Z,5.07
2018-06-24T12:27:37.331Z,8.60
2018-06-24T12:30:08.672Z,7.57
2018-06-24T12:32:38.002Z,5.47
2018-06-24T12:35:07.284Z,6.87
2018-06-24T12:37:36.549Z,9.03
2018-06-24T12:40:07.516Z,7.53
2018-06-24T12:42:36.826Z,6.67
2018-06-24T12:45:06.256Z,6.23
2018-06-24T12:47:35.424Z,5.17
2018-06-24T12:50:07.959Z,6.23
2018-06-24T12:52:37.080Z,6.07
2018-06-24T12:55:06.737Z,4.70
2018-06-24T12:57:35.879Z,5.57
2018-06-24T13:00:09.305Z,4.27
2018-06-24T13:02:38.081Z,7.37
2018-06-24T13:05:07.143Z,5.97
2018-06-24T13:07:36.304Z,5.20
2018-06-24T13:10:09.257Z,6.00
2018-06-24T13:12:38.334Z,5.97
2018-06-24T13:15:08.061Z,7.50
2018-06-24T13:17:37.385Z,5.43
2018-06-24T13:20:07.809Z,6.13
2018-06-24T13:22:36.788Z,4.53
2018-06-24T13:25:06.113Z,4.30
2018-06-24T13:27:35.193Z,4.63
2018-06-24T13:30:08.087Z,5.57
2018-06-24T13:32:38.278Z,6.87
2018-06-24T13:35:08.749Z,4.97
2018-06-24T13:37:37.996Z,7.27
2018-06-24T13:40:08.115Z,7.77
2018-06-24T13:42:37.653Z,5.13
2018-06-24T13:45:08.684Z,3.37
2018-06-24T13:47:37.878Z,4.77
2018-06-24T13:50:09.190Z,4.23
2018-06-24T13:52:38.707Z,4.17
2018-06-24T13:55:08.382Z,4.07
2018-06-24T13:57:37.546Z,4.10
2018-06-24T14:00:08.707Z,5.13
2018-06-24T14:02:39.124Z,3.60
2018-06-24T14:05:09.065Z,7.90
2018-06-24T14:07:38.205Z,6.20
2018-06-24T14:10:08.522Z,3.10
2018-06-24T14:12:37.663Z,3.53
2018-06-24T14:15:06.900Z,4.10
2018-06-24T14:17:36.047Z,4.00
2018-06-24T14:20:06.932Z,3.83
2018-06-24T14:22:36.087Z,4.67
2018-06-24T14:25:06.391Z,4.43
2018-06-24T14:27:35.892Z,5.30
2018-06-24T14:30:06.924Z,5.73
2018-06-24T14:32:36.009Z,6.23
2018-06-24T14:35:05.054Z,7.17
2018-06-24T14:37:34.204Z,4.83
2018-06-24T14:40:06.759Z,4.90
2018-06-24T14:42:35.833Z,6.33
2018-06-24T14:45:05.031Z,4.57
2018-06-24T14:47:34.286Z,6.20
2018-06-24T14:50:07.696Z,5.70
2018-06-24T14:52:36.703Z,7.70
2018-06-24T14:55:05.688Z,6.80
2018-06-24T14:57:36.606Z,5.97
2018-06-24T15:00:07.233Z,6.20
2018-06-24T15:02:40.878Z,5.77
2018-06-24T15:05:10.940Z,6.67
2018-06-24T15:07:41.068Z,5.50
2018-06-24T15:10:10.954Z,4.87
2018-06-24T15:12:40.120Z,5.63
2018-06-24T15:15:09.247Z,5.57
2018-06-24T15:17:39.327Z,7.50
2018-06-24T15:20:08.691Z,8.90
2018-06-24T15:22:37.853Z,6.23
2018-06-24T15:25:07.846Z,6.00
2018-06-24T15:27:37.147Z,7.10
2018-06-24T15:30:07.615Z,6.73
2018-06-24T15:32:36.925Z,9.13
2018-06-24T15:35:05.960Z,7.23
2018-06-24T15:37:35.572Z,5.63
2018-06-24T15:40:07.797Z,6.83
2018-06-24T15:42:37.127Z,8.93
2018-06-24T15:45:06.246Z,4.80
2018-06-24T15:47:35.238Z,7.43
2018-06-24T15:50:08.382Z,7.50
2018-06-24T15:52:37.429Z,13.23
2018-06-24T15:55:06.790Z,6.77
2018-06-24T15:57:36.029Z,7.97
2018-06-24T16:00:08.936Z,6.77
2018-06-24T16:02:38.518Z,5.20
2018-06-24T16:05:07.996Z,5.80
2018-06-24T16:07:37.232Z,5.83
2018-06-24T16:10:07.790Z,5.80
2018-06-24T16:12:36.754Z,6.90
2018-06-24T16:15:06.322Z,9.10
2018-06-24T16:17:35.327Z,8.03
2018-06-24T16:20:07.446Z,8.57
2018-06-24T16:22:37.135Z,9.73
2018-06-24T16:25:07.281Z,6.43
2018-06-24T16:27:36.532Z,7.53
2018-06-24T16:30:10.215Z,11.03
2018-06-24T16:32:39.167Z,8.80
2018-06-24T16:35:08.233Z,8.63
2018-06-24T16:37:37.418Z,11.40
2018-06-24T16:40:07.865Z,8.27
2018-06-24T16:42:37.265Z,10.03
2018-06-24T16:45:06.748Z,6.93
2018-06-24T16:47:35.924Z,8.30
2018-06-24T16:50:08.463Z,7.03
2018-06-24T16:52:37.658Z,7.90
2018-06-24T16:55:07.500Z,12.77
2018-06-24T16:57:37.144Z,6.73
2018-06-24T17:00:07.869Z,8.03
2018-06-24T17:02:37.556Z,8.37
2018-06-24T17:05:06.533Z,10.13
2018-06-24T17:07:35.914Z,10.80
2018-06-24T17:10:08.407Z,7.63
2018-06-24T17:12:37.581Z,9.07
2018-06-24T17:15:06.688Z,6.97
2018-06-24T17:17:35.975Z,7.73
2018-06-24T17:20:09.438Z,8.17
2018-06-24T17:22:38.667Z,8.27
2018-06-24T17:25:08.047Z,9.40
2018-06-24T17:27:38.091Z,7.83
2018-06-24T17:30:07.860Z,7.10
2018-06-24T17:32:37.911Z,6.93
2018-06-24T17:35:07.471Z,6.57
2018-06-24T17:37:36.715Z,7.83
2018-06-24T17:40:07.709Z,6.50
2018-06-24T17:42:36.810Z,7.30
2018-06-24T17:45:06.076Z,8.43
2018-06-24T17:47:35.368Z,12.83
2018-06-24T17:50:08.974Z,14.23
2018-06-24T17:52:38.331Z,11.83
2018-06-24T17:55:07.585Z,11.47
2018-06-24T17:57:37.070Z,11.33
2018-06-24T18:00:09.133Z,7.43
2018-06-24T18:02:38.398Z,9.63
2018-06-24T18:05:07.746Z,9.53
2018-06-24T18:07:37.218Z,8.00
2018-06-24T18:10:07.615Z,7.23
2018-06-24T18:12:36.875Z,8.50
2018-06-24T18:15:06.400Z,7.03
2018-06-24T18:17:35.363Z,5.80
2018-06-24T18:20:08.464Z,6.43
2018-06-24T18:22:37.509Z,5.63
2018-06-24T18:25:06.699Z,6.33
2018-06-24T18:27:35.916Z,6.50
2018-06-24T18:30:09.035Z,7.37
2018-06-24T18:32:38.713Z,6.17
2018-06-24T18:35:08.104Z,6.73
2018-06-24T18:37:37.094Z,7.10
2018-06-24T18:40:08.091Z,6.43
2018-06-24T18:42:37.060Z,6.23
2018-06-24T18:45:06.583Z,6.27
2018-06-24T18:47:35.781Z,5.83
2018-06-24T18:50:08.035Z,6.87
2018-06-24T18:52:37.367Z,7.50
2018-06-24T18:55:06.603Z,7.17
2018-06-24T18:57:35.688Z,7.60
2018-06-24T19:00:08.439Z,6.67
2018-06-24T19:02:37.703Z,6.97
2018-06-24T19:05:06.943Z,6.10
2018-06-24T19:07:35.914Z,8.40
2018-06-24T19:10:08.554Z,5.33
2018-06-24T19:12:38.426Z,6.43
2018-06-24T19:15:07.714Z,7.97
2018-06-24T19:17:37.217Z,7.90
2018-06-24T19:20:07.263Z,6.03
2018-06-24T19:22:37.107Z,6.87
2018-06-24T19:25:07.127Z,6.27
2018-06-24T19:27:36.264Z,7.33
2018-06-24T19:30:08.478Z,6.20
2018-06-24T19:32:38.240Z,6.03
2018-06-24T19:35:07.486Z,8.80
2018-06-24T19:37:37.478Z,6.93
2018-06-24T19:40:07.922Z,6.80
2018-06-24T19:42:37.070Z,7.23
2018-06-24T19:45:06.299Z,8.10
2018-06-24T19:47:41.825Z,7.73
2018-06-24T19:50:10.828Z,7.87
2018-06-24T19:52:40.166Z,6.80
2018-06-24T19:55:09.613Z,8.80
2018-06-24T19:57:38.583Z,7.43
2018-06-24T20:00:07.981Z,7.20
2018-06-24T20:02:37.307Z,7.73
2018-06-24T20:05:06.893Z,8.30
2018-06-24T20:07:36.267Z,7.70
2018-06-24T20:10:07.327Z,7.87
2018-06-24T20:12:36.356Z,7.63
2018-06-24T20:15:06.956Z,7.57
2018-06-24T20:17:36.487Z,7.03
2018-06-24T20:20:08.272Z,6.73
2018-06-24T20:22:38.598Z,7.53
2018-06-24T20:25:08.048Z,8.23
2018-06-24T20:27:37.889Z,7.33
2018-06-24T20:30:07.927Z,37.27
2018-06-24T20:32:37.103Z,17.77
2018-06-24T20:35:06.983Z,21.93
2018-06-24T20:37:36.241Z,7.43
2018-06-24T20:40:07.413Z,7.30
2018-06-24T20:42:36.627Z,14.43
2018-06-24T20:45:06.559Z,8.77
2018-06-24T20:47:37.317Z,12.17
2018-06-24T20:50:07.845Z,7.97
2018-06-24T20:52:37.134Z,11.50
2018-06-24T20:55:06.406Z,12.40
2018-06-24T20:57:35.572Z,33.63
2018-06-24T21:00:08.278Z,8.63
2018-06-24T21:02:37.865Z,13.43
2018-06-24T21:05:06.943Z,6.97
2018-06-24T21:07:36.319Z,9.43
2018-06-24T21:10:09.375Z,11.73
2018-06-24T21:12:38.874Z,9.30
2018-06-24T21:15:08.335Z,13.30
2018-06-24T21:17:37.514Z,7.73
2018-06-24T21:20:08.610Z,6.97
2018-06-24T21:22:38.518Z,12.17
2018-06-24T21:25:07.814Z,15.77
2018-06-24T21:27:36.924Z,17.00
2018-06-24T21:30:07.842Z,7.87
2018-06-24T21:32:36.815Z,7.97
2018-06-24T21:35:06.278Z,15.20
2018-06-24T21:37:40.140Z,29.43
2018-06-24T21:40:12.070Z,11.20
2018-06-24T21:42:45.774Z,8.97
2018-06-24T21:45:20.819Z,7.90
2018-06-24T21:47:54.362Z,12.07
2018-06-24T21:50:26.733Z,8.47
2018-06-24T21:52:57.888Z,7.40
2018-06-24T21:55:28.225Z,9.80
2018-06-24T21:57:59.456Z,7.17
2018-06-24T22:00:30.458Z,11.77
2018-06-24T22:03:01.125Z,9.50
2018-06-24T22:05:30.396Z,8.37
2018-06-24T22:07:59.606Z,8.40
2018-06-24T22:10:28.695Z,9.03
2018-06-24T22:12:57.804Z,11.27
2018-06-24T22:15:27.335Z,8.83
2018-06-24T22:17:56.609Z,11.30
2018-06-24T22:20:25.699Z,14.37
2018-06-24T22:22:54.996Z,8.83
2018-06-24T22:25:24.655Z,12.37
2018-06-24T22:27:53.775Z,9.37
2018-06-24T22:30:22.894Z,14.80
2018-06-24T22:32:52.014Z,11.43
2018-06-24T22:35:21.123Z,15.07
2018-06-24T22:37:50.374Z,10.03
2018-06-24T22:40:19.880Z,17.07
2018-06-24T22:42:49.081Z,12.83
2018-06-24T22:45:18.289Z,11.40
2018-06-24T22:47:47.433Z,12.50
2018-06-24T22:50:16.850Z,13.60
2018-06-24T22:52:45.808Z,9.30
2018-06-24T22:55:14.942Z,12.43
2018-06-24T22:57:44.086Z,12.57
2018-06-24T23:00:16.767Z,9.63
2018-06-24T23:02:46.516Z,10.33
2018-06-24T23:05:15.759Z,10.83
2018-06-24T23:07:45.600Z,8.93
2018-06-24T23:10:15.106Z,7.67
2018-06-24T23:12:44.490Z,6.83
2018-06-24T23:15:13.661Z,7.87
2018-06-24T23:17:42.788Z,7.67
2018-06-24T23:20:12.104Z,8.07
2018-06-24T23:22:41.460Z,7.77
2018-06-24T23:25:11.024Z,8.23
2018-06-24T23:27:40.388Z,7.33
2018-06-24T23:30:09.563Z,7.40
2018-06-24T23:32:38.507Z,9.10
2018-06-24T23:35:07.687Z,8.00
2018-06-24T23:37:37.059Z,9.03
2018-06-24T23:40:07.310Z,8.00
2018-06-24T23:42:36.233Z,7.03
2018-06-24T23:45:05.325Z,6.57
2018-06-24T23:47:34.262Z,7.53
2018-06-24T23:50:06.531Z,7.77
2018-06-24T23:52:35.714Z,10.20
2018-06-24T23:55:05.479Z,7.97
2018-06-24T23:57:34.438Z,8.87
